Time;durP1;ratioP1;P1;durP2;ratioP2;P2;SDS_P1;SDS_P2;PMS_P1;PMS_P2;Temp;Humidity;BMP_temperature;BMP_pressure;BME280_temperature;BME280_humidity;BME280_pressure;Samples;Min_cycle;Max_cycle;Signal;HPM_P1;HPM_P2
2022/10/02 00:02:59;;;;;;;30.85;7.38;;;;;;;12.25;100.00;101247.97;5261359;28;20083;-72
2022/10/02 00:05:34;;;;;;;29.30;7.38;;;;;;;12.21;100.00;101243.69;5262179;28;20111;-73
2022/10/02 00:08:14;;;;;;;27.17;7.53;;;;;;;12.28;100.00;101247.09;5261038;28;20029;-72
2022/10/02 00:10:51;;;;;;;25.83;6.93;;;;;;;12.26;100.00;101247.09;5262986;28;20029;-72
2022/10/02 00:13:30;;;;;;;27.73;7.20;;;;;;;12.34;100.00;101258.31;5262352;28;20112;-72
2022/10/02 00:16:04;;;;;;;33.58;7.95;;;;;;;12.32;100.00;101249.66;5261315;28;20041;-72
2022/10/02 00:18:38;;;;;;;31.00;7.32;;;;;;;12.41;100.00;101264.34;5261576;28;20063;-72
2022/10/02 00:21:29;;;;;;;34.35;7.57;;;;;;;12.38;100.00;101260.03;5261181;28;20029;-72
2022/10/02 00:24:03;;;;;;;27.92;6.60;;;;;;;12.36;100.00;101253.97;5261945;28;20032;-74
2022/10/02 00:26:46;;;;;;;33.83;7.07;;;;;;;12.39;100.00;101258.28;5262600;28;20029;-71
2022/10/02 00:29:28;;;;;;;28.73;6.82;;;;;;;12.45;100.00;101268.66;5260756;28;20075;-71
2022/10/02 00:32:11;;;;;;;35.10;7.53;;;;;;;12.42;100.00;101273.91;5262573;28;20066;-72
2022/10/02 00:35:16;;;;;;;39.53;7.90;;;;;;;12.34;100.00;101270.53;5261969;28;20068;-72
2022/10/02 00:38:05;;;;;;;39.35;7.47;;;;;;;12.35;100.00;101273.13;5262279;28;20033;-72
2022/10/02 00:40:46;;;;;;;26.40;6.65;;;;;;;12.33;100.00;101271.41;5264758;28;20540;-72
2022/10/02 00:43:49;;;;;;;34.88;8.07;;;;;;;12.27;100.00;101281.94;5266236;28;20099;-72
2022/10/02 00:46:24;;;;;;;28.33;6.50;;;;;;;12.28;100.00;101274.06;5231066;28;20037;-72
2022/10/02 00:49:11;;;;;;;29.73;8.38;;;;;;;12.25;100.00;101271.50;5266394;28;20033;-72
2022/10/02 00:51:59;;;;;;;30.58;7.03;;;;;;;12.27;100.00;101287.16;5265380;28;20140;-72
2022/10/02 00:55:12;;;;;;;33.80;7.07;;;;;;;12.24;100.00;101280.25;5265994;28;20431;-71
2022/10/02 00:57:57;;;;;;;32.92;7.82;;;;;;;12.28;100.00;101279.31;5227399;28;20040;-72
2022/10/02 01:00:28;;;;;;;29.73;6.85;;;;;;;12.30;100.00;101267.09;5265815;28;20307;-72
2022/10/02 01:03:10;;;;;;;33.47;8.30;;;;;;;12.26;100.00;101270.63;5264616;28;20044;-72
2022/10/02 01:05:42;;;;;;;36.55;8.68;;;;;;;12.28;100.00;101279.31;5265958;28;20025;-72
2022/10/02 01:08:14;;;;;;;32.30;6.77;;;;;;;12.22;100.00;101274.19;5265787;28;20029;-72
2022/10/02 01:10:46;;;;;;;31.55;7.47;;;;;;;12.26;100.00;101283.69;5265372;28;20032;-72
2022/10/02 01:13:18;;;;;;;41.80;9.73;;;;;;;12.33;100.00;101280.13;5265707;28;20357;-72
2022/10/02 01:15:53;;;;;;;33.20;7.03;;;;;;;12.36;100.00;101287.06;5265580;28;20064;-72
2022/10/02 01:18:25;;;;;;;34.70;8.10;;;;;;;12.42;100.00;101286.13;5264302;28;20526;-72
2022/10/02 01:21:19;;;;;;;29.10;8.52;;;;;;;12.40;100.00;101283.53;5265513;28;20376;-72
2022/10/02 01:23:54;;;;;;;36.08;7.55;;;;;;;12.42;100.00;101281.75;5265388;28;20047;-71
2022/10/02 01:26:25;;;;;;;36.17;8.05;;;;;;;12.39;100.00;101271.34;5265181;28;20388;-72
2022/10/02 01:28:56;;;;;;;29.17;7.07;;;;;;;12.44;100.00;101269.53;5265097;28;20056;-72
2022/10/02 01:31:28;;;;;;;28.27;6.30;;;;;;;12.47;100.00;101268.63;5265889;28;20091;-72
2022/10/02 01:34:00;;;;;;;24.20;6.13;;;;;;;12.47;100.00;101259.03;5264024;28;20025;-71
2022/10/02 01:36:32;;;;;;;30.48;7.75;;;;;;;12.44;100.00;101271.28;5265272;28;20029;-72
2022/10/02 01:39:03;;;;;;;33.67;7.70;;;;;;;12.41;100.00;101272.19;5264465;28;20036;-71
2022/10/02 01:41:42;;;;;;;44.50;8.27;;;;;;;12.35;100.00;101274.91;5265500;28;20045;-72
2022/10/02 01:44:15;;;;;;;42.78;8.52;;;;;;;12.34;100.00;101274.00;5264583;28;20036;-72
2022/10/02 01:47:05;;;;;;;38.88;7.70;;;;;;;12.36;100.00;101269.66;5265531;28;20146;-72
2022/10/02 01:49:58;;;;;;;37.47;8.77;;;;;;;12.44;100.00;101279.13;5263537;28;20040;-72
2022/10/02 01:52:46;;;;;;;;;;;;;;;12.42;100.00;101289.59;5263974;28;20028;-71
2022/10/02 01:55:18;;;;;;;35.85;7.22;;;;;;;12.50;100.00;101284.28;5264889;28;19913;-72
2022/10/02 01:58:28;;;;;;;38.03;7.97;;;;;;;12.43;100.00;101278.28;5264406;28;20087;-72
2022/10/02 02:01:18;;;;;;;39.58;8.65;;;;;;;12.50;100.00;101279.06;5264840;28;20078;-72
2022/10/02 02:04:11;;;;;;;36.75;7.43;;;;;;;12.49;100.00;101285.16;5265255;28;20106;-72
2022/10/02 02:06:58;;;;;;;33.10;7.63;;;;;;;12.52;100.00;101285.97;5262879;28;20032;-71
2022/10/02 02:09:38;;;;;;;41.80;8.98;;;;;;;12.52;100.00;101278.13;5263233;28;20040;-71
2022/10/02 02:12:49;;;;;;;36.17;7.20;;;;;;;12.55;100.00;101285.09;5263475;28;20072;-71
2022/10/02 02:15:45;;;;;;;38.22;8.48;;;;;;;12.53;100.00;101282.50;5163740;28;20023;-72
2022/10/02 02:18:35;;;;;;;39.30;8.15;;;;;;;12.58;100.00;101278.06;5263973;28;20100;-72
2022/10/02 02:21:18;;;;;;;38.55;8.43;;;;;;;12.56;100.00;101282.44;5264207;28;20028;-71
2022/10/02 02:23:50;;;;;;;;;;;;;;;12.63;100.00;101292.84;5264753;28;20017;-71
2022/10/02 02:26:24;;;;;;;35.90;9.13;;;;;;;12.65;100.00;101284.06;5264482;28;19909;-71
2022/10/02 02:29:01;;;;;;;39.42;8.68;;;;;;;12.73;100.00;101291.81;5246708;28;20035;-72
2022/10/02 02:31:39;;;;;;;31.45;8.55;;;;;;;12.76;100.00;101291.78;5263880;28;20036;-71
2022/10/02 02:34:14;;;;;;;31.67;7.88;;;;;;;12.80;100.00;101289.97;5264326;28;20059;-71
2022/10/02 02:36:51;;;;;;;29.75;6.85;;;;;;;12.72;100.00;101297.97;5263987;28;20108;-71
2022/10/02 02:39:31;;;;;;;30.30;6.43;;;;;;;12.65;100.00;101294.53;5264266;28;20021;-71
2022/10/02 02:42:08;;;;;;;36.60;8.73;;;;;;;12.61;100.00;101290.25;5262245;28;20033;-71
2022/10/02 02:44:57;;;;;;;33.03;8.48;;;;;;;12.57;100.00;101278.06;5246904;28;20063;-71
2022/10/02 02:47:47;;;;;;;25.60;6.07;;;;;;;12.47;100.00;101281.72;5264438;28;20090;-71
2022/10/02 02:50:24;;;;;;;20.50;6.25;;;;;;;12.40;100.00;101289.63;5263793;28;20397;-71
2022/10/02 02:53:04;;;;;;;19.00;5.35;;;;;;;12.29;100.00;101291.50;5263446;28;20031;-71
2022/10/02 02:55:49;;;;;;;21.17;6.50;;;;;;;12.23;100.00;101296.78;5262604;28;20029;-71
2022/10/02 02:58:30;;;;;;;24.25;6.13;;;;;;;12.19;100.00;101301.19;5263599;28;20522;-71
2022/10/02 03:01:02;;;;;;;20.10;4.95;;;;;;;12.09;100.00;101304.81;5263705;28;20029;-71
2022/10/02 03:03:34;;;;;;;13.75;4.00;;;;;;;11.99;100.00;101290.97;5262973;28;20044;-71
2022/10/02 03:06:25;;;;;;;17.67;3.87;;;;;;;11.94;100.00;101289.28;5261976;28;20061;-71
2022/10/02 03:08:58;;;;;;;21.27;6.20;;;;;;;11.90;100.00;101292.75;5264251;28;20025;-71
2022/10/02 03:11:54;;;;;;;24.20;5.25;;;;;;;11.80;100.00;101297.22;5262972;28;20032;-71
2022/10/02 03:14:34;;;;;;;16.75;4.50;;;;;;;11.72;100.00;101285.97;5263228;28;20082;-71
2022/10/02 03:17:24;;;;;;;15.07;3.80;;;;;;;11.71;100.00;101290.34;5264107;28;20353;-71
2022/10/02 03:20:15;;;;;;;14.85;4.35;;;;;;;11.65;100.00;101298.22;5263433;28;20025;-71
2022/10/02 03:22:58;;;;;;;9.15;2.83;;;;;;;11.55;100.00;101294.84;5263858;28;20037;-71
2022/10/02 03:25:44;;;;;;;14.60;3.38;;;;;;;11.56;100.00;101295.69;5261923;28;20028;-71
2022/10/02 03:28:38;;;;;;;11.20;3.20;;;;;;;11.58;100.00;101291.34;5263072;28;20032;-71
2022/10/02 03:31:11;;;;;;;12.13;3.90;;;;;;;11.57;100.00;101300.91;5263266;28;20037;-71
2022/10/02 03:33:43;;;;;;;11.95;3.45;;;;;;;11.57;100.00;101300.91;5262916;28;20028;-71
2022/10/02 03:36:16;;;;;;;12.23;3.13;;;;;;;11.52;100.00;101297.47;5261784;28;20534;-71
2022/10/02 03:38:50;;;;;;;9.73;4.53;;;;;;;11.56;100.00;101301.81;5262931;28;20029;-71
2022/10/02 03:41:22;;;;;;;13.90;3.83;;;;;;;11.59;100.00;101290.44;5263325;28;20016;-71
2022/10/02 03:43:53;;;;;;;14.07;4.57;;;;;;;11.53;100.00;101304.44;5261459;28;20033;-71
2022/10/02 03:46:25;;;;;;;16.17;4.80;;;;;;;11.53;100.00;101300.94;5262770;28;20476;-71
2022/10/02 03:48:56;;;;;;;17.40;4.40;;;;;;;11.49;100.00;101315.75;5261486;28;20099;-71
2022/10/02 03:51:27;;;;;;;13.00;4.27;;;;;;;11.54;100.00;101327.03;5262742;28;20025;-71
2022/10/02 03:53:59;;;;;;;18.83;5.90;;;;;;;11.60;100.00;101327.00;5262725;28;20045;-71
2022/10/02 03:56:43;;;;;;;19.77;8.67;;;;;;;11.72;100.00;101330.38;5262669;28;20135;-71
2022/10/02 03:59:29;;;;;;;21.17;7.70;;;;;;;11.75;100.00;101318.19;5262551;28;20052;-71
2022/10/02 04:02:05;;;;;;;19.95;8.57;;;;;;;11.80;100.00;101318.09;5261225;28;20022;-71
2022/10/02 04:04:52;;;;;;;26.33;10.27;;;;;;;11.81;100.00;101317.25;5262838;28;20098;-71
2022/10/02 04:07:31;;;;;;;22.05;9.95;;;;;;;11.80;100.00;101313.78;5262557;28;20491;-71
2022/10/02 04:10:24;;;;;;;19.60;9.88;;;;;;;11.80;100.00;101315.50;5263065;28;20110;-71
2022/10/02 04:13:44;;;;;;;25.00;12.02;;;;;;;11.81;100.00;101318.09;5262530;28;20116;-71
2022/10/02 04:16:23;;;;;;;30.35;11.88;;;;;;;11.85;100.00;101313.72;5181928;28;20154;-71
2022/10/02 04:19:04;;;;;;;28.13;11.27;;;;;;;11.84;100.00;101318.06;5265057;28;20049;-71
2022/10/02 04:21:53;;;;;;;33.47;13.63;;;;;;;11.87;100.00;101317.19;5266862;28;20086;-71
2022/10/02 04:24:39;;;;;;;29.33;11.13;;;;;;;11.84;100.00;101312.84;5266957;28;20373;-71
2022/10/02 04:27:13;;;;;;;25.65;10.90;;;;;;;11.87;100.00;101319.78;5266568;28;20029;-71
2022/10/02 04:29:53;;;;;;;33.00;12.23;;;;;;;11.89;100.00;101325.00;5266371;28;20539;-72
2022/10/02 04:32:28;;;;;;;29.73;12.43;;;;;;;11.91;100.00;101313.66;5267121;28;20117;-71
2022/10/02 04:35:01;;;;;;;27.52;12.95;;;;;;;11.95;100.00;101320.63;5265161;28;20032;-71
2022/10/02 04:37:58;;;;;;;30.23;12.65;;;;;;;12.01;100.00;101317.06;5266649;28;20473;-71
2022/10/02 04:40:51;;;;;;;31.77;13.13;;;;;;;12.05;100.00;101313.56;5266824;28;20384;-71
2022/10/02 04:43:40;;;;;;;24.23;13.25;;;;;;;12.05;100.00;101324.00;5266616;28;20411;-71
2022/10/02 04:46:44;;;;;;;28.25;14.85;;;;;;;12.07;100.00;101337.91;5266545;28;20036;-71
2022/10/02 04:49:36;;;;;;;35.22;16.40;;;;;;;12.14;100.00;101338.72;5221522;28;20124;-71
2022/10/02 04:52:49;;;;;;;39.10;19.58;;;;;;;12.20;100.00;101336.03;5266119;28;20071;-71
2022/10/02 04:55:36;;;;;;;41.60;21.13;;;;;;;12.29;100.00;101340.31;5255507;28;20590;-71
2022/10/02 04:58:19;;;;;;;41.92;22.75;;;;;;;12.30;100.00;101339.41;5266013;28;20506;-71
2022/10/02 05:01:05;;;;;;;46.15;22.38;;;;;;;12.33;100.00;101345.50;5265897;28;20025;-71
2022/10/02 05:03:55;;;;;;;49.38;22.98;;;;;;;12.35;100.00;101348.09;5266191;28;20048;-72
2022/10/02 05:06:41;;;;;;;37.08;18.83;;;;;;;12.46;100.00;101350.56;5265981;28;20023;-71
2022/10/02 05:09:23;;;;;;;38.92;21.35;;;;;;;12.46;100.00;101345.34;5266067;28;20029;-71
2022/10/02 05:12:09;;;;;;;48.30;22.60;;;;;;;12.51;100.00;101347.03;5265877;28;20090;-71
2022/10/02 05:15:19;;;;;;;51.00;22.83;;;;;;;12.56;100.00;101353.06;5265708;28;20024;-71
2022/10/02 05:18:18;;;;;;;44.58;24.30;;;;;;;12.52;100.00;101356.59;5180919;28;20058;-70
2022/10/02 05:21:21;;;;;;;51.08;24.27;;;;;;;12.53;100.00;101352.25;5180834;28;20150;-71
2022/10/02 05:24:11;;;;;;;45.72;24.67;;;;;;;12.50;100.00;101362.75;5260874;28;20045;-71
2022/10/02 05:26:57;;;;;;;46.92;23.85;;;;;;;12.48;100.00;101361.91;5265551;28;20470;-71
2022/10/02 05:29:37;;;;;;;44.35;23.95;;;;;;;12.49;100.00;101368.84;5265363;28;20468;-71
2022/10/02 05:32:50;;;;;;;49.58;25.33;;;;;;;12.43;100.00;101366.28;5265033;28;20075;-71
2022/10/02 05:35:35;;;;;;;46.13;23.58;;;;;;;12.43;100.00;101369.78;5265832;28;20029;-71
2022/10/02 05:38:16;;;;;;;49.25;22.27;;;;;;;12.46;100.00;101371.47;5265263;28;20357;-71
2022/10/02 05:41:06;;;;;;;55.95;23.05;;;;;;;12.43;100.00;101372.41;5265445;28;20036;-71
2022/10/02 05:43:49;;;;;;;41.90;21.15;;;;;;;12.48;100.00;101378.44;5265131;28;20111;-71
2022/10/02 05:46:27;;;;;;;51.78;19.42;;;;;;;12.47;100.00;101375.84;5265511;28;20036;-71
2022/10/02 05:49:05;;;;;;;53.50;19.85;;;;;;;12.49;100.00;101374.06;5264769;28;20226;-71
2022/10/02 05:51:50;;;;;;;53.35;19.05;;;;;;;12.48;100.00;101381.06;5264767;28;20029;-71
2022/10/02 05:54:40;;;;;;;43.78;17.17;;;;;;;12.50;100.00;101374.06;5265208;28;20471;-71
2022/10/02 05:57:25;;;;;;;48.17;16.25;;;;;;;12.53;100.00;101381.88;5265097;28;20031;-71
2022/10/02 06:00:03;;;;;;;45.17;16.27;;;;;;;12.55;100.00;101382.72;5264964;28;20040;-71
2022/10/02 06:03:13;;;;;;;42.60;13.98;;;;;;;12.56;100.00;101381.84;5264712;28;20035;-71
2022/10/02 06:05:44;;;;;;;38.50;13.27;;;;;;;12.57;100.00;101382.69;5264591;28;20095;-71
2022/10/02 06:08:21;;;;;;;45.63;13.43;;;;;;;12.59;100.00;101383.56;5264512;28;20080;-71
2022/10/02 06:10:58;;;;;;;45.13;14.55;;;;;;;12.58;100.00;101381.81;5264681;28;20067;-71
2022/10/02 06:13:39;;;;;;;47.17;13.10;;;;;;;12.61;100.00;101392.25;5263489;28;20137;-71
2022/10/02 06:16:31;;;;;;;44.35;11.43;;;;;;;12.59;100.00;101394.88;5264586;28;20052;-72
2022/10/02 06:19:13;;;;;;;32.63;11.10;;;;;;;12.66;100.00;101402.66;5264772;28;20024;-71
2022/10/02 06:22:06;;;;;;;37.47;9.95;;;;;;;12.66;100.00;101402.66;5264133;28;20025;-71
2022/10/02 06:24:51;;;;;;;48.42;12.02;;;;;;;12.68;100.00;101403.50;5264115;28;20423;-71
2022/10/02 06:27:45;;;;;;;35.17;10.82;;;;;;;12.72;100.00;101421.75;5263701;28;20033;-71
2022/10/02 06:30:18;;;;;;;38.65;10.82;;;;;;;12.73;100.00;101417.38;5263888;28;20032;-71
2022/10/02 06:32:57;;;;;;;39.13;11.35;;;;;;;12.73;100.00;101413.00;5264296;28;20037;-71
2022/10/02 06:36:03;;;;;;;39.78;11.10;;;;;;;12.74;100.00;101414.75;5264449;28;20043;-71
2022/10/02 06:39:12;;;;;;;44.15;11.43;;;;;;;12.78;100.00;101418.19;5263753;28;20033;-71
2022/10/02 06:41:53;;;;;;;31.13;9.50;;;;;;;12.81;100.00;101425.16;5263411;28;20032;-72
2022/10/02 06:45:02;;;;;;;37.83;10.80;;;;;;;12.83;100.00;101424.25;5263849;28;20025;-71
2022/10/02 06:47:56;;;;;;;28.90;10.10;;;;;;;12.86;100.00;101428.56;5263844;28;20029;-71
2022/10/02 06:50:36;;;;;;;37.88;11.10;;;;;;;12.89;100.00;101436.38;5264071;28;20037;-72
2022/10/02 06:53:37;;;;;;;46.45;12.63;;;;;;;12.89;100.00;101441.63;5263999;28;20033;-72
2022/10/02 06:56:11;;;;;;;33.70;10.05;;;;;;;12.89;100.00;101446.84;5263936;28;20032;-71
2022/10/02 06:59:20;;;;;;;32.70;11.55;;;;;;;12.90;100.00;101449.44;5262138;28;20055;-71
2022/10/02 07:02:19;;;;;;;39.85;12.23;;;;;;;12.92;100.00;101457.28;5263185;28;20055;-71
2022/10/02 07:05:18;;;;;;;30.42;11.23;;;;;;;12.94;100.00;101463.34;5263295;28;20037;-71
2022/10/02 07:08:13;;;;;;;36.00;13.70;;;;;;;12.97;100.00;101465.94;5263525;28;20029;-70
2022/10/02 07:11:14;;;;;;;30.02;11.55;;;;;;;12.97;100.00;101467.69;5262575;28;20140;-71
2022/10/02 07:14:00;;;;;;;35.60;11.77;;;;;;;12.98;100.00;101470.31;5246848;28;20442;-71
2022/10/02 07:16:54;;;;;;;35.22;13.43;;;;;;;12.98;100.00;101462.44;5262635;28;20112;-72
2022/10/02 07:19:31;;;;;;;39.53;13.73;;;;;;;13.01;100.00;101466.75;5263046;28;20487;-71
2022/10/02 07:22:17;;;;;;;34.15;12.77;;;;;;;13.07;100.00;101459.72;5262602;28;20029;-71
2022/10/02 07:25:12;;;;;;;31.13;14.02;;;;;;;13.07;100.00;101458.84;5263026;28;20544;-71
2022/10/02 07:27:57;;;;;;;31.20;14.48;;;;;;;13.08;100.00;101466.69;5250300;28;20076;-71
2022/10/02 07:30:43;;;;;;;24.23;14.10;;;;;;;13.14;100.00;101469.22;5262968;28;20411;-71
2022/10/02 07:33:43;;;;;;;24.15;13.85;;;;;;;13.18;100.00;101474.44;5262663;28;20032;-72
2022/10/02 07:36:44;;;;;;;29.27;13.68;;;;;;;13.20;100.00;101470.91;5262789;28;20056;-72
2022/10/02 07:40:12;;;;;;;28.95;13.98;;;;;;;13.29;100.00;101472.53;5231356;28;20067;-72
2022/10/02 07:43:17;;;;;;;23.88;13.52;;;;;;;13.33;100.00;101482.13;5178220;28;20030;-72
2022/10/02 07:45:54;;;;;;;23.63;13.55;;;;;;;13.36;100.00;101478.59;5178029;28;20398;-72
2022/10/02 07:49:03;;;;;;;28.45;12.85;;;;;;;13.47;100.00;101480.16;5256710;28;20065;-72
2022/10/02 07:51:48;;;;;;;23.42;12.55;;;;;;;13.48;100.00;101481.06;5262665;28;20131;-72
2022/10/02 07:54:53;;;;;;;22.90;11.75;;;;;;;13.59;100.00;101478.28;5262201;28;20062;-72
2022/10/02 07:57:59;;;;;;;20.02;11.10;;;;;;;13.73;100.00;101484.16;5262878;28;20082;-72
2022/10/02 08:00:37;;;;;;;22.17;10.77;;;;;;;13.75;100.00;101479.78;5245867;28;20044;-75
2022/10/02 08:03:24;;;;;;;18.95;10.15;;;;;;;13.96;100.00;101498.69;5261988;28;20024;-72
2022/10/02 08:05:58;;;;;;;21.30;9.93;;;;;;;14.01;100.00;101492.50;5262441;28;20058;-74
2022/10/02 08:08:58;;;;;;;20.10;10.85;;;;;;;14.17;100.00;101497.50;5260480;28;20029;-72
2022/10/02 08:11:38;;;;;;;17.67;10.05;;;;;;;14.36;100.00;101503.28;5261463;28;20126;-72
2022/10/02 08:14:17;;;;;;;15.07;9.32;;;;;;;14.43;100.00;101509.31;5260919;28;20029;-72
2022/10/02 08:16:50;;;;;;;17.98;8.70;;;;;;;14.43;100.00;101504.91;5261482;28;20503;-72
2022/10/02 08:19:38;;;;;;;21.88;10.25;;;;;;;14.52;100.00;101519.63;5262490;28;20056;-72
2022/10/02 08:22:23;;;;;;;15.82;10.32;;;;;;;14.59;100.00;101522.16;5262048;28;20416;-72
2022/10/02 08:24:57;;;;;;;19.98;10.25;;;;;;;14.63;100.00;101530.81;5262458;28;20116;-72
2022/10/02 08:27:50;;;;;;;18.98;9.73;;;;;;;14.70;100.00;101529.84;5261927;28;20108;-71
2022/10/02 08:30:21;;;;;;;17.93;9.43;;;;;;;14.63;100.00;101525.56;5262067;28;20040;-72
2022/10/02 08:32:53;;;;;;;19.60;10.80;;;;;;;14.70;100.00;101528.94;5261879;28;20029;-73
2022/10/02 08:35:44;;;;;;;20.30;10.70;;;;;;;14.79;100.00;101528.78;5261942;28;20037;-72
2022/10/02 08:38:38;;;;;;;18.10;10.57;;;;;;;14.75;100.00;101532.38;5261884;28;20546;-73
2022/10/02 08:41:37;;;;;;;16.08;9.43;;;;;;;14.79;100.00;101548.94;5262036;28;20037;-72
2022/10/02 08:44:23;;;;;;;18.77;9.43;;;;;;;14.75;100.00;101554.22;5261808;28;20028;-72
2022/10/02 08:47:31;;;;;;;17.50;9.07;;;;;;;14.92;100.00;101559.19;5261555;28;20033;-72
2022/10/02 08:50:18;;;;;;;18.13;7.97;;;;;;;14.90;100.00;101563.59;5261841;28;20040;-72
2022/10/02 08:53:17;;;;;;;18.85;8.52;;;;;;;14.97;100.00;101555.59;5261676;28;20590;-72
2022/10/02 08:56:10;;;;;;;15.30;8.77;;;;;;;15.22;100.00;101556.84;5261921;28;20521;-72
2022/10/02 08:59:19;;;;;;;18.23;7.97;;;;;;;15.32;100.00;101554.91;5261688;28;20074;-72
2022/10/02 09:02:10;;;;;;;15.43;7.78;;;;;;;15.43;100.00;101565.22;5264013;28;20116;-72
2022/10/02 09:05:13;;;;;;;18.17;7.18;;;;;;;15.54;100.00;101571.09;5264705;28;20094;-71
2022/10/02 09:08:07;;;;;;;19.27;6.55;;;;;;;15.46;100.00;101578.28;5265893;28;20456;-72
2022/10/02 09:11:10;;;;;;;15.30;6.78;;;;;;;15.26;100.00;101576.94;5265508;28;20067;-72
2022/10/02 09:14:10;;;;;;;17.20;6.30;;;;;;;15.26;100.00;101570.78;5265349;28;20029;-72
2022/10/02 09:17:15;;;;;;;11.30;6.32;;;;;;;15.19;100.00;101577.06;5265201;28;20049;-73
2022/10/02 09:20:18;;;;;;;11.70;5.75;;;;;;;15.12;100.00;101577.19;5260041;28;20060;-70
2022/10/02 09:22:52;;;;;;;20.70;6.57;;;;;;;15.18;100.00;101573.56;5264334;28;20123;-71
2022/10/02 09:25:41;;;;;;;18.55;5.82;;;;;;;15.40;100.00;101579.25;5265387;28;20029;-73
2022/10/02 09:28:38;;;;;;;15.98;6.15;;;;;;;16.08;100.00;101576.97;5265208;28;20464;-72
2022/10/02 09:31:15;;;;;;;18.92;5.22;;;;;;;16.18;93.45;101581.09;5264544;28;20035;-73
2022/10/02 09:34:16;;;;;;;17.27;6.35;;;;;;;16.14;94.71;101576.84;5264792;28;20056;-73
2022/10/02 09:37:07;;;;;;;15.45;5.13;;;;;;;15.97;94.42;101578.09;5263548;28;20025;-73
2022/10/02 09:39:59;;;;;;;14.35;5.55;;;;;;;16.22;95.88;101588.03;5264758;28;20526;-73
2022/10/02 09:43:08;;;;;;;15.38;5.47;;;;;;;16.52;93.14;101599.59;5264668;28;20059;-72
2022/10/02 09:46:18;;;;;;;19.50;5.32;;;;;;;16.62;92.50;101602.00;5264525;28;20107;-72
2022/10/02 09:49:14;;;;;;;16.83;6.47;;;;;;;16.63;91.76;101588.81;5263124;28;20083;-72
2022/10/02 09:52:07;;;;;;;24.70;5.68;;;;;;;16.78;92.20;101596.31;5264698;28;20384;-73
2022/10/02 09:54:54;;;;;;;14.75;4.95;;;;;;;16.46;90.39;101598.88;5264283;28;20033;-72
2022/10/02 09:57:40;;;;;;;18.15;5.45;;;;;;;16.38;91.88;101605.19;5264960;28;20028;-72
2022/10/02 10:00:50;;;;;;;15.75;6.25;;;;;;;16.45;90.64;101602.41;5264826;28;20059;-73
2022/10/02 10:03:53;;;;;;;16.52;4.80;;;;;;;16.74;91.50;101613.09;5263976;28;20069;-73
2022/10/02 10:06:55;;;;;;;22.33;5.25;;;;;;;16.77;89.93;101606.88;5264987;28;20033;-71
2022/10/02 10:09:50;;;;;;;14.48;4.85;;;;;;;16.86;90.63;101611.94;5264265;28;20066;-73
2022/10/02 10:12:36;;;;;;;19.83;5.65;;;;;;;17.76;86.16;101612.97;5263048;28;20059;-72
2022/10/02 10:15:26;;;;;;;17.40;4.70;;;;;;;18.07;84.01;101616.50;5264619;28;20112;-73
2022/10/02 10:18:41;;;;;;;13.82;5.07;;;;;;;18.47;82.83;101618.72;5264516;28;20084;-72
2022/10/02 10:21:42;;;;;;;14.02;5.05;;;;;;;18.28;82.02;101620.25;5237039;28;20037;-71
2022/10/02 10:24:22;;;;;;;14.25;4.40;;;;;;;17.96;81.09;101622.09;5264164;28;20028;-72
2022/10/02 10:27:31;;;;;;;17.95;5.63;;;;;;;18.00;80.52;101634.25;5264281;28;20036;-72
2022/10/02 10:30:20;;;;;;;15.10;5.07;;;;;;;17.66;79.22;101630.84;5179803;28;20117;-71
2022/10/02 10:33:36;;;;;;;15.45;4.70;;;;;;;18.18;79.21;101641.63;5179860;28;20054;-71
2022/10/02 10:39:43;;;;;;;13.18;4.65;;;;;;;18.13;77.87;101666.41;5244173;28;20349;-72
2022/10/02 10:42:32;;;;;;;19.85;5.18;;;;;;;17.93;76.81;101667.03;5263539;28;20040;-72
2022/10/02 10:45:17;;;;;;;12.05;4.25;;;;;;;17.81;76.33;101660.31;5263702;28;20076;-71
2022/10/02 10:47:51;;;;;;;15.98;4.57;;;;;;;18.11;76.01;101661.22;5263647;28;20028;-73
2022/10/02 10:50:40;;;;;;;15.27;4.80;;;;;;;18.12;76.99;101672.63;5262907;28;20036;-73
2022/10/02 10:53:33;;;;;;;13.00;4.70;;;;;;;18.08;76.79;101671.84;5263824;28;20029;-73
2022/10/02 10:56:18;;;;;;;12.90;4.35;;;;;;;17.92;75.87;101665.28;5263137;28;20067;-73
2022/10/02 10:59:18;;;;;;;21.05;5.28;;;;;;;18.19;75.42;101668.88;5263520;28;20527;-73
2022/10/02 11:02:01;;;;;;;16.05;4.43;;;;;;;17.91;76.74;101664.44;5263671;28;20029;-72
2022/10/02 11:04:45;;;;;;;15.57;4.53;;;;;;;17.86;75.54;101659.25;5263226;28;20028;-72
2022/10/02 11:07:36;;;;;;;17.98;5.97;;;;;;;17.80;76.19;101648.88;5262544;28;20037;-71
2022/10/02 11:10:32;;;;;;;15.20;4.32;;;;;;;17.77;77.57;101648.97;5263304;28;20108;-72
2022/10/02 11:13:26;;;;;;;13.45;5.00;;;;;;;18.04;75.92;101659.66;5262914;28;20119;-72
2022/10/02 11:16:15;;;;;;;16.05;5.07;;;;;;;18.20;76.47;101653.00;5263498;28;20029;-73
2022/10/02 11:18:58;;;;;;;16.25;4.13;;;;;;;18.75;75.17;101657.44;5263045;28;20461;-72
2022/10/02 11:21:55;;;;;;;15.57;4.57;;;;;;;19.00;71.61;101664.53;5263053;28;20033;-73
2022/10/02 11:24:29;;;;;;;15.93;4.95;;;;;;;19.40;69.27;101661.41;5261265;28;20375;-72
2022/10/02 11:27:33;;;;;;;17.77;5.93;;;;;;;20.10;71.35;101672.94;5261669;28;20447;-72
2022/10/02 11:30:22;;;;;;;15.52;4.43;;;;;;;19.78;68.08;101664.44;5262850;28;20397;-73
2022/10/02 11:33:12;;;;;;;18.05;4.15;;;;;;;19.02;69.06;101675.94;5262654;28;20021;-73
2022/10/02 11:36:13;;;;;;;15.07;5.07;;;;;;;18.83;72.10;101678.31;5263009;28;20177;-73
2022/10/02 11:39:09;;;;;;;16.20;4.60;;;;;;;18.57;71.40;101680.88;5262674;28;20031;-71
2022/10/02 11:42:10;;;;;;;13.82;4.15;;;;;;;18.43;73.15;101680.44;5263006;28;20040;-72
2022/10/02 11:45:19;;;;;;;17.52;5.35;;;;;;;18.30;73.26;101689.66;5261564;28;20025;-72
2022/10/02 11:48:11;;;;;;;19.35;4.70;;;;;;;17.89;74.15;101682.09;5262127;28;20060;-72
2022/10/02 11:51:09;;;;;;;15.07;5.30;;;;;;;18.06;73.64;101684.22;5261732;28;20025;-72
2022/10/02 11:54:25;;;;;;;14.85;4.63;;;;;;;18.50;71.94;101692.56;5260991;28;20086;-75
2022/10/02 11:57:15;;;;;;;14.50;4.50;;;;;;;18.78;71.93;101679.31;5240696;28;20388;-71
2022/10/02 12:00:13;;;;;;;15.25;4.70;;;;;;;19.22;70.51;101675.25;5262201;28;20092;-72
2022/10/02 12:03:19;;;;;;;14.85;4.75;;;;;;;19.47;68.20;101678.75;5261874;28;20375;-72
2022/10/02 12:06:10;;;;;;;13.88;5.72;;;;;;;18.80;70.88;101681.91;5248159;28;20065;-72
2022/10/02 12:09:05;;;;;;;15.48;4.90;;;;;;;18.28;71.68;101683.59;5261222;28;20377;-72
2022/10/02 12:11:47;;;;;;;11.77;4.57;;;;;;;17.67;75.06;101689.69;5261042;28;20025;-71
2022/10/02 12:14:27;;;;;;;16.38;7.20;;;;;;;17.35;75.73;101682.69;5262204;28;20037;-72
2022/10/02 12:17:01;;;;;;;18.33;6.15;;;;;;;17.01;79.88;101700.22;5260841;28;20053;-72
2022/10/02 12:26:57;;;;;;;19.23;6.65;;;;;;;16.75;82.44;101706.97;5261989;28;20116;-71
2022/10/02 12:29:23;;;;;;;20.33;7.60;;;;;;;15.20;100.00;101696.97;5262543;28;20045;-71
2022/10/02 12:32:25;;;;;;;18.45;6.22;;;;;;;15.08;98.93;101708.56;5262032;28;20028;-71
2022/10/02 12:34:56;;;;;;;16.73;6.55;;;;;;;15.02;99.41;101708.66;5263079;28;20025;-71
2022/10/02 12:37:47;;;;;;;13.70;6.17;;;;;;;14.93;100.00;101704.44;5266244;28;20025;-71
2022/10/02 12:40:30;;;;;;;16.17;7.78;;;;;;;14.93;100.00;101713.16;5266410;28;20029;-72
2022/10/02 12:43:17;;;;;;;26.00;8.82;;;;;;;15.58;100.00;101704.16;5266461;28;20086;-71
2022/10/02 12:46:12;;;;;;;19.95;8.00;;;;;;;16.72;100.00;101714.94;5266154;28;20106;-72
2022/10/02 12:48:59;;;;;;;14.82;7.70;;;;;;;17.62;100.00;101704.78;5265194;28;20029;-71
2022/10/02 12:51:39;;;;;;;21.48;10.18;;;;;;;18.63;95.75;101711.50;5265704;28;20029;-73
2022/10/02 12:54:39;;;;;;;28.45;16.88;;;;;;;19.90;87.66;101701.94;5265929;28;20037;-71